createdAt,value
2018-10-03T00:01:17.469Z,7.07
2018-10-03T00:03:51.763Z,6.93
2018-10-03T00:06:26.720Z,5.33
2018-10-03T00:09:01.523Z,6.37
2018-10-03T00:11:36.669Z,5.13
2018-10-03T00:14:11.200Z,5.60
2018-10-03T00:16:46.029Z,5.57
2018-10-03T00:19:21.093Z,6.43
2018-10-03T00:21:55.775Z,5.40
2018-10-03T00:24:30.287Z,6.43
2018-10-03T00:27:05.340Z,4.70
2018-10-03T00:29:39.776Z,5.17
2018-10-03T00:32:14.469Z,6.13
2018-10-03T00:34:48.981Z,5.10
2018-10-03T00:37:23.584Z,5.50
2018-10-03T00:39:58.065Z,6.30
2018-10-03T00:42:32.910Z,5.10
2018-10-03T00:45:08.101Z,6.63
2018-10-03T00:47:42.755Z,6.47
2018-10-03T00:50:17.299Z,5.87
2018-10-03T00:52:51.640Z,6.27
2018-10-03T00:55:26.327Z,5.77
2018-10-03T00:58:00.928Z,6.20
2018-10-03T01:00:35.333Z,8.70
2018-10-03T01:03:09.819Z,6.00
2018-10-03T01:05:44.311Z,6.67
2018-10-03T01:08:18.627Z,5.30
2018-10-03T01:10:53.142Z,6.87
2018-10-03T01:13:27.736Z,7.27
2018-10-03T01:16:02.460Z,5.43
2018-10-03T01:18:37.457Z,5.20
2018-10-03T01:21:11.817Z,5.57
2018-10-03T01:23:46.148Z,6.70
2018-10-03T01:26:20.456Z,5.40
2018-10-03T01:28:54.968Z,7.30
2018-10-03T01:31:29.452Z,5.23
2018-10-03T01:34:04.304Z,7.00
2018-10-03T01:36:38.936Z,5.47
2018-10-03T01:39:13.775Z,6.13
2018-10-03T01:41:48.236Z,5.30
2018-10-03T01:44:22.556Z,5.50
2018-10-03T01:46:57.000Z,5.17
2018-10-03T01:49:31.359Z,6.37
2018-10-03T01:52:06.814Z,5.43
2018-10-03T01:54:41.524Z,5.83
2018-10-03T01:57:16.075Z,6.10
2018-10-03T01:59:50.935Z,6.20
2018-10-03T02:02:25.258Z,6.33
2018-10-03T02:05:00.287Z,6.03
2018-10-03T02:07:34.620Z,7.20
2018-10-03T02:10:09.058Z,7.70
2018-10-03T02:12:43.699Z,6.20
2018-10-03T02:15:18.228Z,5.93
2018-10-03T02:17:52.581Z,6.87
2018-10-03T02:20:27.636Z,7.57
2018-10-03T02:23:02.016Z,6.43
2018-10-03T02:25:36.756Z,6.20
2018-10-03T02:28:11.158Z,6.50
2018-10-03T02:30:45.499Z,6.83
2018-10-03T02:33:20.214Z,6.30
2018-10-03T02:35:54.985Z,5.93
2018-10-03T02:38:29.820Z,9.20
2018-10-03T02:41:04.503Z,6.33
2018-10-03T02:43:38.812Z,6.00
2018-10-03T02:46:13.643Z,6.07
2018-10-03T02:48:48.432Z,6.57
2018-10-03T02:51:23.314Z,5.73
2018-10-03T02:54:07.632Z,5.53
2018-10-03T02:56:43.060Z,5.70
2018-10-03T02:59:17.579Z,6.13
2018-10-03T03:01:52.058Z,5.70
2018-10-03T03:04:26.903Z,5.87
2018-10-03T03:07:01.713Z,5.83
2018-10-03T03:09:36.369Z,5.73
2018-10-03T03:12:10.694Z,6.47
2018-10-03T03:14:45.289Z,9.27
2018-10-03T03:17:20.576Z,6.50
2018-10-03T03:19:55.472Z,6.23
2018-10-03T03:22:29.931Z,6.70
2018-10-03T03:25:04.392Z,9.07
2018-10-03T03:27:39.254Z,7.77
2018-10-03T03:30:14.035Z,5.80
2018-10-03T03:32:48.344Z,6.07
2018-10-03T03:35:22.666Z,6.13
2018-10-03T03:37:57.264Z,5.70
2018-10-03T03:40:31.812Z,5.40
2018-10-03T03:43:06.443Z,6.97
2018-10-03T03:45:40.983Z,8.13
2018-10-03T03:48:15.535Z,6.00
2018-10-03T03:50:50.296Z,5.53
2018-10-03T03:53:25.061Z,7.37
2018-10-03T03:55:59.396Z,6.77
2018-10-03T03:58:33.987Z,5.70
2018-10-03T04:01:08.441Z,8.60
2018-10-03T04:03:43.099Z,6.80
2018-10-03T04:06:17.868Z,5.50
2018-10-03T04:08:52.955Z,5.30
2018-10-03T04:11:27.644Z,5.97
2018-10-03T04:14:02.609Z,5.30
2018-10-03T04:16:37.252Z,5.47
2018-10-03T04:19:12.109Z,5.90
2018-10-03T04:21:46.896Z,5.30
2018-10-03T04:24:21.609Z,6.37
2018-10-03T04:26:56.323Z,5.70
2018-10-03T04:29:30.732Z,7.33
2018-10-03T04:32:05.945Z,4.97
2018-10-03T04:34:40.340Z,5.17
2018-10-03T04:37:14.778Z,4.70
2018-10-03T04:39:49.598Z,6.23
2018-10-03T04:42:24.098Z,6.77
2018-10-03T04:44:58.718Z,7.77
2018-10-03T04:47:33.059Z,9.57
2018-10-03T04:50:07.827Z,5.30
2018-10-03T04:52:42.298Z,6.60
2018-10-03T04:55:16.727Z,5.07
2018-10-03T04:57:51.028Z,6.27
2018-10-03T05:00:25.507Z,5.60
2018-10-03T05:03:00.179Z,5.20
2018-10-03T05:05:34.927Z,5.67
2018-10-03T05:08:09.811Z,5.70
2018-10-03T05:10:44.219Z,5.67
2018-10-03T05:13:18.750Z,4.80
2018-10-03T05:15:54.167Z,7.10
2018-10-03T05:18:28.471Z,8.57
2018-10-03T05:21:03.029Z,5.50
2018-10-03T05:23:37.375Z,4.87
2018-10-03T05:26:11.688Z,5.60
2018-10-03T05:28:46.019Z,5.20
2018-10-03T05:31:20.831Z,4.47
2018-10-03T05:33:55.721Z,5.70
2018-10-03T05:36:30.022Z,5.40
2018-10-03T05:39:07.011Z,4.97
2018-10-03T05:41:42.676Z,5.27
2018-10-03T05:44:17.299Z,3.90
2018-10-03T05:46:52.155Z,4.90
2018-10-03T05:49:26.761Z,5.90
2018-10-03T05:52:01.129Z,4.20
2018-10-03T05:54:35.625Z,4.77
2018-10-03T05:57:10.592Z,5.23
2018-10-03T05:59:45.195Z,4.83
2018-10-03T06:02:20.103Z,4.27
2018-10-03T06:04:54.424Z,4.07
2018-10-03T06:07:28.906Z,4.50
2018-10-03T06:10:03.267Z,8.73
2018-10-03T06:12:38.411Z,5.13
2018-10-03T06:15:13.259Z,6.43
2018-10-03T06:17:48.239Z,5.70
2018-10-03T06:20:23.214Z,5.47
2018-10-03T06:22:57.620Z,4.23
2018-10-03T06:25:33.528Z,3.97
2018-10-03T06:28:08.322Z,4.73
2018-10-03T06:30:43.322Z,3.63
2018-10-03T06:33:18.340Z,3.80
2018-10-03T06:35:53.821Z,4.70
2018-10-03T06:38:28.336Z,5.40
2018-10-03T06:41:02.828Z,3.50
2018-10-03T06:43:37.287Z,3.63
2018-10-03T06:46:12.107Z,4.30
2018-10-03T06:48:46.503Z,3.80
2018-10-03T06:51:20.832Z,3.53
2018-10-03T06:53:55.173Z,4.17
2018-10-03T06:56:30.633Z,4.90
2018-10-03T06:59:06.678Z,3.60
2018-10-03T07:01:50.427Z,3.90
2018-10-03T07:04:31.612Z,4.83
2018-10-03T07:07:07.512Z,5.53
2018-10-03T07:09:51.938Z,4.30
2018-10-03T07:12:26.344Z,3.90
2018-10-03T07:15:00.984Z,3.80
2018-10-03T07:17:35.498Z,3.30
2018-10-03T07:20:10.429Z,3.27
2018-10-03T07:22:45.179Z,4.27
2018-10-03T07:25:22.103Z,4.43
2018-10-03T07:27:56.583Z,3.60
2018-10-03T07:30:31.088Z,3.93
2018-10-03T07:33:06.589Z,3.50
2018-10-03T07:35:40.873Z,5.20
2018-10-03T07:38:15.280Z,5.23
2018-10-03T07:40:50.540Z,4.20
2018-10-03T07:43:25.471Z,3.30
2018-10-03T07:45:59.987Z,3.57
2018-10-03T07:48:34.699Z,5.83
2018-10-03T07:51:09.496Z,4.13
2018-10-03T07:53:44.244Z,5.67
2018-10-03T07:56:18.949Z,4.40
2018-10-03T07:58:54.540Z,4.17
2018-10-03T08:01:29.124Z,3.60
2018-10-03T08:04:03.616Z,3.30
2018-10-03T08:06:38.083Z,4.10
2018-10-03T08:09:12.610Z,3.53
2018-10-03T08:11:47.152Z,4.97
2018-10-03T08:14:21.568Z,3.50
2018-10-03T08:16:56.438Z,3.30
2018-10-03T08:19:31.273Z,3.63
2018-10-03T08:22:05.634Z,3.53
2018-10-03T08:24:40.483Z,3.80
2018-10-03T08:27:15.462Z,5.93
2018-10-03T08:29:49.756Z,4.60
2018-10-03T08:32:24.316Z,6.47
2018-10-03T08:34:59.467Z,5.57
2018-10-03T08:37:34.265Z,6.67
2018-10-03T08:40:08.776Z,3.63
2018-10-03T08:42:49.353Z,3.00
2018-10-03T08:45:23.842Z,3.00
2018-10-03T08:47:58.624Z,3.60
2018-10-03T08:50:33.634Z,10.07
2018-10-03T08:53:08.617Z,3.70
2018-10-03T08:55:43.676Z,4.47
2018-10-03T08:58:18.154Z,3.13
2018-10-03T09:00:52.772Z,4.13
2018-10-03T09:03:27.118Z,4.33
2018-10-03T09:06:01.680Z,2.90
2018-10-03T09:08:36.285Z,2.93
2018-10-03T09:11:12.168Z,2.93
2018-10-03T09:13:47.157Z,2.60
2018-10-03T09:16:21.800Z,2.73
2018-10-03T09:18:56.570Z,2.90
2018-10-03T09:21:31.879Z,2.33
2018-10-03T09:24:06.951Z,2.90
2018-10-03T09:26:44.239Z,2.73
2018-10-03T09:29:54.279Z,2.10
2018-10-03T09:32:29.484Z,2.80
2018-10-03T09:35:04.339Z,2.43
2018-10-03T09:37:39.509Z,2.73
2018-10-03T09:40:14.561Z,2.10
2018-10-03T09:46:31.138Z,3.20
2018-10-03T09:49:11.694Z,2.60
2018-10-03T09:51:52.068Z,2.23
2018-10-03T09:54:26.930Z,2.63
2018-10-03T09:57:01.285Z,2.73
2018-10-03T09:59:35.902Z,2.70
2018-10-03T10:02:11.671Z,3.47
2018-10-03T10:04:46.852Z,3.87
2018-10-03T10:07:21.404Z,4.70
2018-10-03T10:10:01.043Z,2.50
2018-10-03T10:12:40.366Z,2.77
2018-10-03T10:15:15.841Z,7.13
2018-10-03T10:17:54.300Z,4.70
2018-10-03T10:20:29.598Z,3.97
2018-10-03T10:23:05.464Z,4.20
2018-10-03T10:25:40.541Z,3.20
2018-10-03T10:28:15.427Z,3.50
2018-10-03T10:30:49.717Z,3.20
2018-10-03T10:33:24.540Z,3.17
2018-10-03T10:35:58.991Z,3.43
2018-10-03T10:38:33.815Z,3.20
2018-10-03T10:41:08.725Z,4.07
2018-10-03T10:43:43.359Z,3.63
2018-10-03T10:46:18.185Z,5.37
2018-10-03T10:48:52.868Z,4.47
2018-10-03T10:51:27.349Z,3.00
2018-10-03T10:54:02.013Z,3.10
2018-10-03T10:56:37.123Z,3.20
2018-10-03T10:59:11.490Z,3.00
2018-10-03T11:01:46.987Z,3.27
2018-10-03T11:04:23.253Z,3.57
2018-10-03T11:07:00.109Z,2.90
2018-10-03T11:09:34.733Z,4.07
2018-10-03T11:12:09.483Z,2.90
2018-10-03T11:14:44.823Z,3.93
2018-10-03T11:17:19.944Z,4.63
2018-10-03T11:19:54.580Z,3.20
2018-10-03T11:22:30.354Z,3.70
2018-10-03T11:25:13.137Z,4.37
2018-10-03T11:27:47.915Z,3.57
2018-10-03T11:30:22.592Z,3.63
2018-10-03T11:32:58.093Z,3.00
2018-10-03T11:35:32.510Z,5.23
2018-10-03T11:38:07.430Z,3.13
2018-10-03T11:40:46.246Z,2.80
2018-10-03T11:43:20.982Z,4.20
2018-10-03T11:45:55.539Z,2.70
2018-10-03T11:48:29.937Z,3.07
2018-10-03T11:51:04.517Z,3.13
2018-10-03T11:53:39.668Z,3.20
2018-10-03T11:56:14.636Z,4.03
2018-10-03T11:58:49.281Z,3.20
2018-10-03T12:01:24.185Z,4.53
2018-10-03T12:03:58.563Z,8.73
2018-10-03T12:06:33.288Z,4.50
2018-10-03T12:09:10.443Z,5.40
2018-10-03T12:11:45.475Z,5.30
2018-10-03T12:14:20.068Z,5.23
2018-10-03T12:16:54.717Z,5.37
2018-10-03T12:19:32.922Z,4.47
2018-10-03T12:22:07.847Z,7.27
2018-10-03T12:24:42.263Z,6.77
2018-10-03T12:27:16.751Z,3.47
2018-10-03T12:29:51.325Z,5.67
2018-10-03T12:32:26.636Z,3.50
2018-10-03T12:35:01.482Z,5.17
2018-10-03T12:37:36.124Z,4.43
2018-10-03T12:40:10.639Z,4.10
2018-10-03T12:42:45.552Z,4.37
2018-10-03T12:45:20.146Z,6.77
2018-10-03T12:47:54.790Z,4.57
2018-10-03T12:50:36.175Z,4.73
2018-10-03T12:56:15.331Z,4.43
2018-10-03T12:59:10.311Z,4.80
2018-10-03T13:01:57.195Z,4.57
2018-10-03T13:04:31.795Z,4.33
2018-10-03T13:07:06.467Z,4.87
2018-10-03T13:09:41.048Z,4.30
2018-10-03T13:12:15.493Z,3.70
2018-10-03T13:14:51.245Z,4.07
2018-10-03T13:17:33.799Z,3.70
2018-10-03T13:23:08.768Z,3.87
2018-10-03T13:26:03.523Z,3.30
2018-10-03T13:28:38.155Z,3.40
2018-10-03T13:31:12.903Z,3.30
2018-10-03T13:33:53.075Z,3.60
2018-10-03T13:36:28.345Z,3.63
2018-10-03T13:39:02.980Z,3.27
2018-10-03T13:41:37.511Z,3.40
2018-10-03T13:44:12.188Z,2.90
2018-10-03T13:46:46.744Z,3.87
2018-10-03T13:49:31.399Z,4.27
2018-10-03T13:52:05.924Z,3.77
2018-10-03T13:54:40.514Z,3.30
2018-10-03T13:57:15.668Z,3.27
2018-10-03T13:59:50.142Z,3.00
2018-10-03T14:02:24.816Z,3.67
2018-10-03T14:05:02.879Z,2.90
2018-10-03T14:07:37.490Z,3.23
2018-10-03T14:10:12.291Z,2.83
2018-10-03T14:12:47.045Z,4.27
2018-10-03T14:15:21.922Z,3.10
2018-10-03T14:17:56.464Z,3.30
2018-10-03T14:20:30.869Z,3.93
2018-10-03T14:23:05.624Z,3.97
2018-10-03T14:25:39.933Z,4.90
2018-10-03T14:28:14.746Z,3.70
2018-10-03T14:30:49.400Z,4.97
2018-10-03T14:33:31.739Z,4.83
2018-10-03T14:36:08.303Z,9.60
2018-10-03T14:38:42.795Z,4.73
2018-10-03T14:41:17.184Z,4.00
2018-10-03T14:43:51.940Z,4.77
2018-10-03T14:46:27.872Z,4.47
2018-10-03T14:49:02.617Z,4.50
2018-10-03T14:51:37.085Z,4.20
2018-10-03T14:54:12.909Z,5.10
2018-10-03T14:56:53.662Z,4.50
2018-10-03T14:59:32.779Z,4.43
2018-10-03T15:02:23.696Z,4.43
2018-10-03T15:04:58.095Z,5.67
2018-10-03T15:07:33.064Z,5.17
2018-10-03T15:10:07.671Z,4.20
2018-10-03T15:12:42.387Z,3.97
2018-10-03T15:15:17.075Z,4.50
2018-10-03T15:17:55.696Z,4.17
2018-10-03T15:20:30.145Z,4.63
2018-10-03T15:23:04.476Z,6.63
2018-10-03T15:25:39.591Z,4.57
2018-10-03T15:28:14.251Z,4.03
2018-10-03T15:30:49.340Z,4.03
2018-10-03T15:33:23.896Z,6.00
2018-10-03T15:36:00.360Z,4.13
2018-10-03T15:38:34.716Z,4.77
2018-10-03T15:41:09.155Z,4.27
2018-10-03T15:43:43.947Z,4.47
2018-10-03T15:46:18.260Z,4.93
2018-10-03T15:48:52.548Z,4.83
2018-10-03T15:51:27.346Z,5.63
2018-10-03T15:54:03.043Z,4.13
2018-10-03T15:56:38.807Z,5.30
2018-10-03T16:02:28.287Z,4.20
2018-10-03T16:05:03.264Z,4.17
2018-10-03T16:07:37.669Z,4.70
2018-10-03T16:10:12.341Z,7.23
2018-10-03T16:12:46.933Z,4.20
2018-10-03T16:15:21.589Z,5.17
2018-10-03T16:17:56.024Z,3.50
2018-10-03T16:20:30.751Z,6.47
2018-10-03T16:23:05.446Z,4.73
2018-10-03T16:25:40.059Z,4.07
2018-10-03T16:28:14.568Z,5.47
2018-10-03T16:30:51.004Z,4.27
2018-10-03T16:33:25.352Z,4.97
2018-10-03T16:35:59.951Z,4.33
2018-10-03T16:38:34.722Z,3.70
2018-10-03T16:41:09.577Z,3.97
2018-10-03T16:43:44.255Z,5.07
2018-10-03T16:46:18.576Z,4.87
2018-10-03T16:48:53.049Z,4.17
2018-10-03T16:51:27.459Z,6.17
2018-10-03T16:54:01.883Z,4.40
2018-10-03T16:56:36.391Z,4.50
2018-10-03T16:59:11.155Z,4.10
2018-10-03T17:01:46.023Z,4.40
2018-10-03T17:04:20.896Z,5.77
2018-10-03T17:06:55.976Z,4.20
2018-10-03T17:09:32.120Z,4.30
2018-10-03T17:12:07.103Z,5.03
2018-10-03T17:14:41.552Z,6.57
2018-10-03T17:17:16.009Z,5.07
2018-10-03T17:19:50.500Z,4.30
2018-10-03T17:22:25.110Z,3.80
2018-10-03T17:25:00.809Z,3.87
2018-10-03T17:27:35.737Z,4.63
2018-10-03T17:30:10.420Z,4.10
2018-10-03T17:32:44.858Z,4.50
2018-10-03T17:35:19.327Z,5.07
2018-10-03T17:37:53.727Z,5.07
2018-10-03T17:40:28.423Z,5.37
2018-10-03T17:43:02.849Z,5.57
2018-10-03T17:45:37.338Z,4.83
2018-10-03T17:48:11.867Z,5.23
2018-10-03T17:50:46.692Z,5.07
2018-10-03T17:53:21.441Z,4.80
2018-10-03T17:55:56.437Z,6.30
2018-10-03T17:58:31.040Z,5.23
2018-10-03T18:01:12.781Z,6.00
2018-10-03T18:03:47.568Z,7.80
2018-10-03T18:06:22.651Z,5.63
2018-10-03T18:08:57.152Z,6.77
2018-10-03T18:11:31.798Z,8.63
2018-10-03T18:14:07.379Z,6.40
2018-10-03T18:16:42.088Z,7.07
2018-10-03T18:19:18.752Z,7.00
2018-10-03T18:21:53.499Z,7.80
2018-10-03T18:24:28.353Z,8.57
2018-10-03T18:27:07.125Z,8.17
2018-10-03T18:29:44.840Z,8.93
2018-10-03T18:32:19.679Z,8.10
2018-10-03T18:34:55.589Z,7.37
2018-10-03T18:37:31.892Z,8.13
2018-10-03T18:40:06.996Z,7.97
2018-10-03T18:42:41.317Z,9.17
2018-10-03T18:45:17.042Z,7.23
2018-10-03T18:47:52.004Z,7.53
2018-10-03T18:50:27.162Z,8.17
2018-10-03T18:53:01.659Z,8.20
2018-10-03T18:55:40.311Z,7.97
2018-10-03T18:58:16.168Z,8.57
2018-10-03T19:00:50.771Z,7.93
2018-10-03T19:03:25.301Z,8.47
2018-10-03T19:05:59.767Z,8.00
2018-10-03T19:08:36.405Z,9.50
2018-10-03T19:11:10.880Z,8.67
2018-10-03T19:13:45.352Z,8.57
2018-10-03T19:16:19.784Z,8.17
2018-10-03T19:18:54.256Z,7.87
2018-10-03T19:21:30.267Z,8.63
2018-10-03T19:24:04.752Z,9.33
2018-10-03T19:26:39.283Z,7.83
2018-10-03T19:29:14.243Z,8.07
2018-10-03T19:31:48.649Z,7.10
2018-10-03T19:34:23.249Z,8.13
2018-10-03T19:37:04.142Z,8.00
2018-10-03T19:39:38.728Z,7.83
2018-10-03T19:42:13.530Z,8.73
2018-10-03T19:44:48.566Z,8.50
2018-10-03T19:47:23.592Z,10.70
2018-10-03T19:49:57.956Z,11.50
2018-10-03T19:52:32.471Z,10.00
2018-10-03T19:55:07.662Z,10.93
2018-10-03T19:57:42.150Z,9.63
2018-10-03T20:00:16.745Z,8.90
2018-10-03T20:02:51.238Z,9.10
2018-10-03T20:05:25.715Z,9.13
2018-10-03T20:08:00.355Z,9.30
2018-10-03T20:10:34.843Z,8.40
2018-10-03T20:13:09.575Z,8.90
2018-10-03T20:15:44.309Z,8.50
2018-10-03T20:18:19.048Z,8.53
2018-10-03T20:20:53.547Z,9.37
2018-10-03T20:23:28.788Z,10.23
2018-10-03T20:26:03.268Z,9.40
2018-10-03T20:28:37.660Z,10.83
2018-10-03T20:31:12.407Z,11.10
2018-10-03T20:33:46.776Z,9.10
2018-10-03T20:36:21.169Z,10.13
2018-10-03T20:38:56.183Z,9.13
2018-10-03T20:41:30.758Z,9.73
2018-10-03T20:44:06.159Z,9.30
2018-10-03T20:46:40.677Z,9.20
2018-10-03T20:49:15.178Z,10.37
2018-10-03T20:51:49.697Z,10.00
2018-10-03T20:54:24.246Z,10.90
2018-10-03T20:56:59.174Z,11.17
2018-10-03T20:59:33.599Z,12.63
2018-10-03T21:02:08.957Z,9.70
2018-10-03T21:04:43.581Z,10.70
2018-10-03T21:07:18.676Z,11.33
2018-10-03T21:09:52.995Z,10.80
2018-10-03T21:12:27.455Z,10.77
2018-10-03T21:15:02.113Z,13.13
2018-10-03T21:17:36.996Z,13.23
2018-10-03T21:20:11.343Z,11.53
2018-10-03T21:22:46.287Z,9.33
2018-10-03T21:25:20.767Z,9.70
2018-10-03T21:27:55.227Z,8.57
2018-10-03T21:30:29.835Z,8.87
2018-10-03T21:33:04.220Z,9.63
2018-10-03T21:35:38.708Z,8.73
2018-10-03T21:38:13.171Z,8.30
2018-10-03T21:40:47.563Z,8.77
2018-10-03T21:43:22.132Z,8.50
2018-10-03T21:45:56.417Z,8.77
2018-10-03T21:48:30.960Z,7.93
2018-10-03T21:51:05.847Z,7.60
2018-10-03T21:53:40.636Z,7.67
2018-10-03T21:56:15.197Z,7.33
2018-10-03T21:58:49.732Z,7.63
2018-10-03T22:01:24.263Z,7.50
2018-10-03T22:03:58.792Z,7.97
2018-10-03T22:06:33.435Z,8.27
2018-10-03T22:09:09.103Z,7.93
2018-10-03T22:11:43.827Z,7.80
2018-10-03T22:14:18.251Z,8.00
2018-10-03T22:16:52.683Z,7.50
2018-10-03T22:19:27.451Z,7.90
2018-10-03T22:22:01.991Z,7.70
2018-10-03T22:24:36.864Z,8.03
2018-10-03T22:27:11.616Z,7.60
2018-10-03T22:29:47.426Z,7.30
2018-10-03T22:32:21.985Z,8.00
2018-10-03T22:34:56.772Z,7.93
2018-10-03T22:37:31.459Z,7.73
2018-10-03T22:40:06.879Z,7.90
2018-10-03T22:42:41.405Z,7.93
2018-10-03T22:45:16.168Z,8.30
2018-10-03T22:47:50.644Z,7.83
2018-10-03T22:50:25.111Z,7.70
2018-10-03T22:53:00.379Z,8.40
2018-10-03T22:55:34.796Z,7.93
2018-10-03T22:58:09.108Z,8.03
2018-10-03T23:00:43.507Z,8.20
2018-10-03T23:03:18.346Z,7.53
2018-10-03T23:05:53.492Z,8.13
2018-10-03T23:08:28.436Z,8.20
2018-10-03T23:11:03.091Z,7.83
2018-10-03T23:13:37.511Z,8.00
2018-10-03T23:16:12.371Z,7.50
2018-10-03T23:18:47.113Z,8.37
2018-10-03T23:21:21.511Z,8.37
2018-10-03T23:23:55.775Z,7.77
2018-10-03T23:26:30.285Z,7.87
2018-10-03T23:29:05.110Z,7.37
2018-10-03T23:31:39.780Z,8.20
2018-10-03T23:34:14.464Z,7.67
2018-10-03T23:36:50.529Z,8.03
2018-10-03T23:39:24.976Z,7.93
2018-10-03T23:41:59.433Z,7.93
2018-10-03T23:44:34.012Z,8.83
2018-10-03T23:47:08.416Z,8.13
2018-10-03T23:49:43.636Z,9.90
2018-10-03T23:52:18.327Z,8.57
2018-10-03T23:54:53.183Z,8.07
2018-10-03T23:57:27.629Z,8.33
